Flugplatz Kamenz

Für EDCM sind keine METAR/TAF Berichte vorhanden.
Es werden die Flugwettermeldungen vom Flugplatz Dresden in 30 km Entfernung angezeigt.

Bericht für EDDC

vom 18.09. um 09:50 UTC

Wind 5 kt aus 290°

Sichtweite 10 km oder mehr

aufgebrochene Bewölkung in 1100 ft

Temperatur 13.0°C

Taupunkt 10.0°C

Luftfeuchtigkeit 82%

Luftdruck 1015 hPa

EDDC 180950Z 29005KT 240V330 9999 BKN011 13/10 Q1015 BECMG BKN009

Prognose für EDDC

vom 18.09. um 05:00 UTC

Zwischen 06:00 UTC und 07:00 UTC

Wind 6 kt aus 300°

Sichtweite 10 km oder mehr

aufgebrochene Bewölkung in 3000 ft


Zwischen 07:00 und 10:00 UTC übergehend zu

Wind 6 kt aus 300°

Sichtweite 10 km oder mehr

aufgebrochene Bewölkung in 1100 ft


Zwischen 08:00 UTC und 13:00 UTC zeitweise

Sichtweite 4500 m

schwacher Sprühregen

bedeckt in 400 ft


Zwischen 12:00 und 15:00 UTC übergehend zu

Wind 6 kt aus 300°

Sichtweite 10 km oder mehr

aufgebrochene Bewölkung in 1500 ft


Zwischen 15:00 und 17:00 UTC übergehend zu

Wind 4 kt aus 10°

Sichtweite 10 km oder mehr

aufgebrochene Bewölkung in 1500 ft

TAF EDDC 180500Z 1806/1906 30006KT 9999 BKN030 BECMG 1807/1810 BKN011 TEMPO 1808/1813 4500 -DZ OVC004 BECMG 1812/1815 BKN015 BECMG 1815/1817 01004KT
Impressum